Time;durP1;ratioP1;P1;durP2;ratioP2;P2;SDS_P1;SDS_P2;PMS_P1;PMS_P2;Temp;Humidity;BMP_temperature;BMP_pressure;BME280_temperature;BME280_humidity;BME280_pressure;Samples;Min_cycle;Max_cycle;Signal;HPM_P1;HPM_P2
2022/11/15 00:00:36;;;;;;;;;;;;;;;;;;5128854;27;20064;-58
2022/11/15 00:03:20;;;;;;;;;;;;;;;;;;5128083;27;19934;-58
2022/11/15 00:06:04;;;;;;;;;;;;;;;;;;5131857;27;19972;-58
2022/11/15 00:08:48;;;;;;;;;;;;;;;;;;5117789;27;19964;-58
2022/11/15 00:11:32;;;;;;;;;;;;;;;;;;5112461;28;19919;-58
2022/11/15 00:14:16;;;;;;;;;;;;;;;;;;5116166;27;19966;-58
2022/11/15 00:17:01;;;;;;;;;;;;;;;;;;5115191;27;19930;-58
2022/11/15 00:19:45;;;;;;;;;;;;;;;;;;5115099;27;20281;-58
2022/11/15 00:22:29;;;;;;;;;;;;;;;;;;5121172;27;19918;-58
2022/11/15 00:25:14;;;;;;;;;;;;;;;;;;5120397;27;19934;-58
2022/11/15 00:27:58;;;;;;;;;;;;;;;;;;5117126;27;19972;-58
2022/11/15 00:30:42;;;;;;;;;;;;;;;;;;5122388;27;19972;-58
2022/11/15 00:33:26;;;;;;;;;;;;;;;;;;5118229;27;19961;-60
2022/11/15 00:36:11;;;;;;;;;;;;;;;;;;5102312;27;19918;-58
2022/11/15 00:38:55;;;;;;;;;;;;;;;;;;5124967;27;19926;-58
2022/11/15 00:41:39;;;;;;;;;;;;;;;;;;5131184;27;19918;-58
2022/11/15 00:44:23;;;;;;;;;;;;;;;;;;5099908;27;19946;-60
2022/11/15 00:47:08;;;;;;;;;;;;;;;;;;5110701;28;19922;-58
2022/11/15 00:49:51;;;;;;;;;;;;;;;;;;5131253;27;19955;-58
2022/11/15 00:52:36;;;;;;;;;;;;;;;;;;5105803;27;20767;-59
2022/11/15 00:55:20;;;;;;;;;;;;;;;;;;5101379;27;19954;-59
2022/11/15 00:58:04;;;;;;;;;;;;;;;;;;5107089;27;19972;-59
2022/11/15 01:00:49;;;;;;;;;;;;;;;;;;5108262;27;20323;-59
2022/11/15 01:03:33;;;;;;;;;;;;;;;;;;5109850;27;19919;-59
2022/11/15 01:06:17;;;;;;;;;;;;;;;;;;5101634;27;19966;-59
2022/11/15 01:09:01;;;;;;;;;;;;;;;;;;5102649;27;19922;-59
2022/11/15 01:11:45;;;;;;;;;;;;;;;;;;5110912;27;19984;-59
2022/11/15 01:14:29;;;;;;;;;;;;;;;;;;5106735;27;20439;-59
2022/11/15 01:17:13;;;;;;;;;;;;;;;;;;5103532;27;19965;-58
2022/11/15 01:19:57;;;;;;;;;;;;;;;;;;5108653;28;19943;-59
2022/11/15 01:22:41;;;;;;;;;;;;;;;;;;5108798;27;19942;-58
2022/11/15 01:25:25;;;;;;;;;;;;;;;;;;5108113;27;19971;-59
2022/11/15 01:28:09;;;;;;;;;;;;;;;;;;5104271;27;19919;-58
2022/11/15 01:30:53;;;;;;;;;;;;;;;;;;5110844;28;20296;-59
2022/11/15 01:33:37;;;;;;;;;;;;;;;;;;5105897;27;20014;-59
2022/11/15 01:36:21;;;;;;;;;;;;;;;;;;5112254;28;19994;-59
2022/11/15 01:39:06;;;;;;;;;;;;;;;;;;5106634;28;19966;-60
2022/11/15 01:41:50;;;;;;;;;;;;;;;;;;5107397;28;20010;-59
2022/11/15 01:44:33;;;;;;;;;;;;;;;;;;5106047;27;19919;-59
2022/11/15 01:47:17;;;;;;;;;;;;;;;;;;5105164;28;19938;-59
2022/11/15 01:50:02;;;;;;;;;;;;;;;;;;5105916;28;19920;-59
2022/11/15 01:52:46;;;;;;;;;;;;;;;;;;5111713;28;20316;-58
2022/11/15 01:55:31;;;;;;;;;;;;;;;;;;5107152;28;20003;-59
2022/11/15 01:58:15;;;;;;;;;;;;;;;;;;5107844;28;19927;-59
2022/11/15 02:01:00;;;;;;;;;;;;;;;;;;5109277;27;20356;-58
2022/11/15 02:03:44;;;;;;;;;;;;;;;;;;5112340;27;19919;-58
2022/11/15 02:06:29;;;;;;;;;;;;;;;;;;5112617;27;19927;-58
2022/11/15 02:09:14;;;;;;;;;;;;;;;;;;5110241;27;19918;-58
2022/11/15 02:11:58;;;;;;;;;;;;;;;;;;5112749;27;19968;-57
2022/11/15 02:14:43;;;;;;;;;;;;;;;;;;5107794;28;19918;-57
2022/11/15 02:17:29;;;;;;;;;;;;;;;;;;5102008;27;19926;-59
2022/11/15 02:20:14;;;;;;;;;;;;;;;;;;5111007;27;20009;-58
2022/11/15 02:22:58;;;;;;;;;;;;;;;;;;5111451;27;19992;-59
2022/11/15 02:25:43;;;;;;;;;;;;;;;;;;5107805;28;20323;-59
2022/11/15 02:28:28;;;;;;;;;;;;;;;;;;5103805;27;20384;-58
2022/11/15 02:31:13;;;;;;;;;;;;;;;;;;5110787;27;19970;-59
2022/11/15 02:33:57;;;;;;;;;;;;;;;;;;5105193;27;19926;-59
2022/11/15 02:36:41;;;;;;;;;;;;;;;;;;5103680;27;20238;-59
2022/11/15 02:39:25;;;;;;;;;;;;;;;;;;5109635;27;19992;-58
2022/11/15 02:43:56;;;;;;;;;;;;;;;;;;5099790;28;20273;-58
2022/11/15 02:45:17;;;;;;;;;;;;;;;;;;5099168;27;19966;-59
2022/11/15 02:48:02;;;;;;;;;;;;;;;;;;5109376;27;20025;-58
2022/11/15 02:50:48;;;;;;;;;;;;;;;;;;5109844;27;20289;-59
2022/11/15 02:53:32;;;;;;;;;;;;;;;;;;5105098;27;20450;-60
2022/11/15 02:56:17;;;;;;;;;;;;;;;;;;5094602;27;20029;-59
2022/11/15 02:59:01;;;;;;;;;;;;;;;;;;5091678;28;19927;-59
2022/11/15 03:01:46;;;;;;;;;;;;;;;;;;5109500;27;19919;-59
2022/11/15 03:04:32;;;;;;;;;;;;;;;;;;5110125;27;19972;-59
2022/11/15 03:07:16;;;;;;;;;;;;;;;;;;5112198;27;19927;-58
2022/11/15 03:10:01;;;;;;;;;;;;;;;;;;5103134;27;20045;-59
2022/11/15 03:12:45;;;;;;;;;;;;;;;;;;5105910;27;19919;-59
2022/11/15 03:15:30;;;;;;;;;;;;;;;;;;5110707;27;19957;-59
2022/11/15 03:18:14;;;;;;;;;;;;;;;;;;5111087;27;19919;-59
2022/11/15 03:20:59;;;;;;;;;;;;;;;;;;5111243;28;20284;-58
2022/11/15 03:23:43;;;;;;;;;;;;;;;;;;5111527;27;19919;-58
2022/11/15 03:26:28;;;;;;;;;;;;;;;;;;5110566;27;19942;-60
2022/11/15 03:29:14;;;;;;;;;;;;;;;;;;5110878;27;20282;-58
2022/11/15 03:31:59;;;;;;;;;;;;;;;;;;5108320;27;19973;-59
2022/11/15 03:34:44;;;;;;;;;;;;;;;;;;5109166;27;19966;-59
2022/11/15 03:37:31;;;;;;;;;;;;;;;;;;5109973;27;19918;-59
2022/11/15 03:40:16;;;;;;;;;;;;;;;;;;5113779;27;19941;-59
2022/11/15 03:43:00;;;;;;;;;;;;;;;;;;5109239;27;19981;-59
2022/11/15 03:45:44;;;;;;;;;;;;;;;;;;5112936;27;20274;-59
2022/11/15 03:48:29;;;;;;;;;;;;;;;;;;5111191;27;20396;-60
2022/11/15 03:51:15;;;;;;;;;;;;;;;;;;5110816;27;19919;-60
2022/11/15 03:54:00;;;;;;;;;;;;;;;;;;5106682;27;19957;-59
2022/11/15 03:56:44;;;;;;;;;;;;;;;;;;5114891;27;20269;-57
2022/11/15 03:59:29;;;;;;;;;;;;;;;;;;5111837;27;20004;-59
2022/11/15 04:02:15;;;;;;;;;;;;;;;;;;5112344;27;19927;-58
2022/11/15 04:05:00;;;;;;;;;;;;;;;;;;5106750;27;19964;-58
2022/11/15 04:07:44;;;;;;;;;;;;;;;;;;5107628;27;19966;-57
2022/11/15 04:10:28;;;;;;;;;;;;;;;;;;5084386;27;20829;-59
2022/11/15 04:13:13;;;;;;;;;;;;;;;;;;5062823;27;19922;-58
2022/11/15 04:15:57;;;;;;;;;;;;;;;;;;5086825;27;19965;-58
2022/11/15 04:18:42;;;;;;;;;;;;;;;;;;5096284;27;20336;-58
2022/11/15 04:24:29;;;;;;;;;;;;;;;;;;5075698;27;19926;-57
2022/11/15 04:27:14;;;;;;;;;;;;;;;;;;5056186;28;19927;-58
2022/11/15 04:29:58;;;;;;;;;;;;;;;;;;5068928;27;19992;-57
2022/11/15 04:32:44;;;;;;;;;;;;;;;;;;5072848;27;19966;-57
2022/11/15 04:35:29;;;;;;;;;;;;;;;;;;5071491;27;20092;-56
2022/11/15 04:38:13;;;;;;;;;;;;;;;;;;5056570;28;19919;-58
2022/11/15 04:40:58;;;;;;;;;;;;;;;;;;5075517;27;19970;-56
2022/11/15 04:43:42;;;;;;;;;;;;;;;;;;5074225;27;19949;-58
2022/11/15 04:46:27;;;;;;;;;;;;;;;;;;5075584;27;20031;-57
2022/11/15 04:49:14;;;;;;;;;;;;;;;;;;5071768;27;20068;-57
2022/11/15 04:52:00;;;;;;;;;;;;;;;;;;5070533;27;19926;-57
2022/11/15 04:54:44;;;;;;;;;;;;;;;;;;5072781;27;19992;-57
2022/11/15 04:57:32;;;;;;;;;;;;;;;;;;5068959;27;19927;-57
2022/11/15 05:00:16;;;;;;;;;;;;;;;;;;5073207;27;20043;-57
2022/11/15 05:06:05;;;;;;;;;;;;;;;;;;5071091;27;19999;-57
2022/11/15 05:08:50;;;;;;;;;;;;;;;;;;5055895;28;20872;-57
2022/11/15 05:11:34;;;;;;;;;;;;;;;;;;5073077;27;19922;-58
2022/11/15 05:14:19;;;;;;;;;;;;;;;;;;5070760;27;19988;-57
2022/11/15 05:17:03;;;;;;;;;;;;;;;;;;5066329;27;19985;-56
2022/11/15 05:19:47;;;;;;;;;;;;;;;;;;5072705;27;20526;-57
2022/11/15 05:22:31;;;;;;;;;;;;;;;;;;5071802;27;20516;-56
2022/11/15 05:25:16;;;;;;;;;;;;;;;;;;5056122;27;19924;-56
2022/11/15 05:28:00;;;;;;;;;;;;;;;;;;5057683;27;19988;-57
2022/11/15 05:30:46;;;;;;;;;;;;;;;;;;5071046;27;21741;-57
2022/11/15 05:33:30;;;;;;;;;;;;;;;;;;5070411;28;20699;-58
2022/11/15 05:36:16;;;;;;;;;;;;;;;;;;5071880;28;19923;-58
2022/11/15 05:39:02;;;;;;;;;;;;;;;;;;5068331;28;20112;-58
2022/11/15 05:41:47;;;;;;;;;;;;;;;;;;5067482;28;20671;-57
2022/11/15 05:44:34;;;;;;;;;;;;;;;;;;5068095;28;19922;-57
2022/11/15 05:47:18;;;;;;;;;;;;;;;;;;5070872;28;19992;-57
2022/11/15 05:50:03;;;;;;;;;;;;;;;;;;5071675;28;19923;-57
2022/11/15 05:52:48;;;;;;;;;;;;;;;;;;5071775;28;19996;-56
2022/11/15 05:55:32;;;;;;;;;;;;;;;;;;5072850;28;19965;-55
2022/11/15 05:58:20;;;;;;;;;;;;;;;;;;5074508;28;19992;-57
2022/11/15 06:01:04;;;;;;;;;;;;;;;;;;5070361;28;20001;-56
2022/11/15 06:03:52;;;;;;;;;;;;;;;;;;5067936;28;21587;-57
2022/11/15 06:06:38;;;;;;;;;;;;;;;;;;5070758;28;19992;-57
2022/11/15 06:09:22;;;;;;;;;;;;;;;;;;5070331;28;19919;-56
2022/11/15 06:12:07;;;;;;;;;;;;;;;;;;5056388;28;19970;-56
2022/11/15 06:14:52;;;;;;;;;;;;;;;;;;5060897;28;20364;-58
2022/11/15 06:17:36;;;;;;;;;;;;;;;;;;5063632;28;19918;-57
2022/11/15 06:20:23;;;;;;;;;;;;;;;;;;5065616;28;20700;-57
2022/11/15 06:23:07;;;;;;;;;;;;;;;;;;5051168;28;19922;-57
2022/11/15 06:25:51;;;;;;;;;;;;;;;;;;5071482;28;19918;-57
2022/11/15 06:28:37;;;;;;;;;;;;;;;;;;5063068;28;19939;-57
2022/11/15 06:31:21;;;;;;;;;;;;;;;;;;5064040;28;20005;-58
2022/11/15 06:34:06;;;;;;;;;;;;;;;;;;5063462;28;19939;-58
2022/11/15 06:36:52;;;;;;;;;;;;;;;;;;5068240;28;19970;-57
2022/11/15 06:39:36;;;;;;;;;;;;;;;;;;5070777;28;19931;-57
2022/11/15 06:42:22;;;;;;;;;;;;;;;;;;5066900;28;19923;-57
2022/11/15 06:45:07;;;;;;;;;;;;;;;;;;5068306;27;19923;-56
2022/11/15 06:47:51;;;;;;;;;;;;;;;;;;5073448;27;19923;-58
2022/11/15 06:50:36;;;;;;;;;;;;;;;;;;5074731;27;19923;-57
2022/11/15 06:53:22;;;;;;;;;;;;;;;;;;5071469;27;19922;-59
2022/11/15 06:56:08;;;;;;;;;;;;;;;;;;5074703;27;20474;-58
2022/11/15 06:58:53;;;;;;;;;;;;;;;;;;5066905;27;20721;-57
2022/11/15 07:01:40;;;;;;;;;;;;;;;;;;5067804;27;19969;-57
2022/11/15 07:04:24;;;;;;;;;;;;;;;;;;5071442;27;19966;-57
2022/11/15 07:07:12;;;;;;;;;;;;;;;;;;5074743;27;20652;-58
2022/11/15 07:09:56;;;;;;;;;;;;;;;;;;5070179;27;19947;-57
2022/11/15 07:12:41;;;;;;;;;;;;;;;;;;5071735;27;20027;-57
2022/11/15 07:15:26;;;;;;;;;;;;;;;;;;5071145;27;19923;-57
2022/11/15 07:18:12;;;;;;;;;;;;;;;;;;5078222;27;20713;-57
2022/11/15 07:20:56;;;;;;;;;;;;;;;;;;5075825;27;19995;-58
2022/11/15 07:23:42;;;;;;;;;;;;;;;;;;5072093;27;20746;-57
2022/11/15 07:26:29;;;;;;;;;;;;;;;;;;5070232;27;20748;-57
2022/11/15 07:29:13;;;;;;;;;;;;;;;;;;5070601;27;19926;-58
2022/11/15 07:31:57;;;;;;;;;;;;;;;;;;5068710;27;19989;-58
2022/11/15 07:34:42;;;;;;;;;;;;;;;;;;5054390;27;20323;-58
2022/11/15 07:37:26;;;;;;;;;;;;;;;;;;5068338;27;19919;-58
2022/11/15 07:40:11;;;;;;;;;;;;;;;;;;5105676;27;19927;-58
2022/11/15 07:42:58;;;;;;;;;;;;;;;;;;5102353;27;19919;-58
2022/11/15 07:45:43;;;;;;;;;;;;;;;;;;5097536;27;19922;-57
2022/11/15 07:48:29;;;;;;;;;;;;;;;;;;5084507;27;19919;-57
2022/11/15 07:51:16;;;;;;;;;;;;;;;;;;5087540;28;20319;-57
2022/11/15 07:54:02;;;;;;;;;;;;;;;;;;5100684;27;19919;-58
2022/11/15 07:56:47;;;;;;;;;;;;;;;;;;5098831;27;19950;-58
2022/11/15 07:59:31;;;;;;;;;;;;;;;;;;5097566;27;19966;-58
2022/11/15 08:02:17;;;;;;;;;;;;;;;;;;5095446;27;19920;-58
2022/11/15 08:05:02;;;;;;;;;;;;;;;;;;5096984;27;20396;-58
2022/11/15 08:07:47;;;;;;;;;;;;;;;;;;5105070;27;19966;-57
2022/11/15 08:10:32;;;;;;;;;;;;;;;;;;5108515;27;20003;-57
2022/11/15 08:13:17;;;;;;;;;;;;;;;;;;5098664;28;19919;-57
2022/11/15 08:16:01;;;;;;;;;;;;;;;;;;5103432;27;19966;-57
2022/11/15 08:18:45;;;;;;;;;;;;;;;;;;5106330;27;20305;-57
2022/11/15 08:21:32;;;;;;;;;;;;;;;;;;5097506;27;20447;-57
2022/11/15 08:24:16;;;;;;;;;;;;;;;;;;5097633;28;20424;-57
2022/11/15 08:27:00;;;;;;;;;;;;;;;;;;5098276;27;20016;-57
2022/11/15 08:29:46;;;;;;;;;;;;;;;;;;5096879;27;20411;-57
2022/11/15 08:32:31;;;;;;;;;;;;;;;;;;5064108;28;19966;-58
2022/11/15 08:35:15;;;;;;;;;;;;;;;;;;5068873;28;20442;-57
2022/11/15 08:38:01;;;;;;;;;;;;;;;;;;5060356;28;20394;-57
2022/11/15 08:40:45;;;;;;;;;;;;;;;;;;5069726;28;20397;-57
2022/11/15 08:43:30;;;;;;;;;;;;;;;;;;5073209;28;19919;-57
2022/11/15 08:46:15;;;;;;;;;;;;;;;;;;5071394;28;20462;-57
2022/11/15 08:48:59;;;;;;;;;;;;;;;;;;5071862;28;19962;-58
2022/11/15 08:51:43;;;;;;;;;;;;;;;;;;5072476;28;19951;-57
2022/11/15 08:54:28;;;;;;;;;;;;;;;;;;5073037;28;20436;-57
2022/11/15 08:57:16;;;;;;;;;;;;;;;;;;5071523;28;19919;-57
2022/11/15 09:00:01;;;;;;;;;;;;;;;;;;5071763;28;19927;-57
2022/11/15 09:02:45;;;;;;;;;;;;;;;;;;5072864;28;19936;-57
2022/11/15 09:05:30;;;;;;;;;;;;;;;;;;5074222;28;19919;-57
2022/11/15 09:08:14;;;;;;;;;;;;;;;;;;5073150;28;20365;-57
2022/11/15 09:10:59;;;;;;;;;;;;;;;;;;5074215;28;20340;-57
2022/11/15 09:13:43;;;;;;;;;;;;;;;;;;5073965;28;19919;-57
2022/11/15 09:16:29;;;;;;;;;;;;;;;;;;5073870;28;19927;-57
2022/11/15 09:19:14;;;;;;;;;;;;;;;;;;5073651;28;20389;-57
2022/11/15 09:21:58;;;;;;;;;;;;;;;;;;5073846;28;19978;-57
2022/11/15 09:24:43;;;;;;;;;;;;;;;;;;5073778;28;19989;-57
2022/11/15 09:27:27;;;;;;;;;;;;;;;;;;5073775;28;19986;-57
2022/11/15 09:30:12;;;;;;;;;;;;;;;;;;5077382;28;19963;-57
2022/11/15 09:32:56;;;;;;;;;;;;;;;;;;5114283;28;19919;-57
2022/11/15 09:35:41;;;;;;;;;;;;;;;;;;5114359;28;19957;-58
2022/11/15 09:38:25;;;;;;;;;;;;;;;;;;5114368;28;20382;-58
2022/11/15 09:41:09;;;;;;;;;;;;;;;;;;5114209;28;19927;-58
2022/11/15 09:43:54;;;;;;;;;;;;;;;;;;5114212;28;19919;-58
2022/11/15 09:46:38;;;;;;;;;;;;;;;;;;5114196;28;19922;-58
2022/11/15 09:49:30;;;;;;;;;;;;;;;;;;5074528;28;20319;-57
2022/11/15 09:52:12;;;;;;;;;;;;;;;;;;5095571;28;19950;-58
2022/11/15 09:54:40;;;;;;;;;;;;;;;;;;5113766;28;20002;-58
2022/11/15 09:57:06;;;;;;;;;;;;;;;;;;5113745;28;19935;-58
2022/11/15 09:59:34;;;;;;;;;;;;;;;;;;5113618;28;19927;-58
2022/11/15 10:02:01;;;;;;;;;;;;;;;;;;5112884;28;19912;-57
2022/11/15 10:04:29;;;;;;;;;;;;;;;;;;5113558;28;19919;-57
2022/11/15 10:06:56;;;;;;;;;;;;;;;;;;5113589;28;19908;-57
2022/11/15 10:09:22;;;;;;;;;;;;;;;;;;5113148;28;19996;-57
2022/11/15 10:11:47;;;;;;;;;;;;;;;;;;5113580;28;20365;-57
2022/11/15 10:14:13;;;;;;;;;;;;;;;;;;5113304;28;19911;-57
2022/11/15 10:16:39;;;;;;;;;;;;;;;;;;5113368;28;19935;-57
2022/11/15 10:19:07;;;;;;;;;;;;;;;;;;5113336;28;19915;-57
2022/11/15 10:21:33;;;;;;;;;;;;;;;;;;5117747;28;19908;-57
2022/11/15 10:23:59;;;;;;;;;;;;;;;;;;5117383;28;19916;-57
2022/11/15 10:26:27;;;;;;;;;;;;;;;;;;5117215;28;19961;-58
2022/11/15 10:28:55;;;;;;;;;;;;;;;;;;5099468;28;20285;-57
2022/11/15 10:31:20;;;;;;;;;;;;;;;;;;5117111;28;20003;-57
2022/11/15 10:33:46;;;;;;;;;;;;;;;;;;5117354;28;19954;-58
2022/11/15 10:36:14;;;;;;;;;;;;;;;;;;5116086;28;19908;-58
2022/11/15 10:38:41;;;;;;;;;;;;;;;;;;5117179;28;19912;-57
2022/11/15 10:41:07;;;;;;;;;;;;;;;;;;5117373;28;19915;-57
2022/11/15 10:43:33;;;;;;;;;;;;;;;;;;5117104;28;19911;-57
2022/11/15 10:45:59;;;;;;;;;;;;;;;;;;5116914;28;19916;-57
2022/11/15 10:48:26;;;;;;;;;;;;;;;;;;5117003;28;20290;-57
2022/11/15 10:50:55;;;;;;;;;;;;;;;;;;5116880;28;20362;-57
2022/11/15 10:53:21;;;;;;;;;;;;;;;;;;5117079;28;20269;-57
2022/11/15 10:55:46;;;;;;;;;;;;;;;;;;5116781;28;19908;-57
2022/11/15 10:58:14;;;;;;;;;;;;;;;;;;5116804;28;19964;-57
2022/11/15 11:00:41;;;;;;;;;;;;;;;;;;5116615;28;19924;-57
2022/11/15 11:03:07;;;;;;;;;;;;;;;;;;5116718;28;19919;-57
2022/11/15 11:05:33;;;;;;;;;;;;;;;;;;5116669;28;19908;-57
2022/11/15 11:07:59;;;;;;;;;;;;;;;;;;5116879;28;19947;-58
2022/11/15 11:10:25;;;;;;;;;;;;;;;;;;5116589;27;20278;-58
2022/11/15 11:12:51;;;;;;;;;;;;;;;;;;5116440;28;19991;-57
2022/11/15 11:15:17;;;;;;;;;;;;;;;;;;5116493;27;19911;-57
2022/11/15 11:17:42;;;;;;;;;;;;;;;;;;5116835;28;20259;-57
2022/11/15 11:20:10;;;;;;;;;;;;;;;;;;5116525;27;19962;-58
2022/11/15 11:22:36;;;;;;;;;;;;;;;;;;5116488;28;19962;-57
2022/11/15 11:25:02;;;;;;;;;;;;;;;;;;5116436;28;19907;-57
2022/11/15 11:27:27;;;;;;;;;;;;;;;;;;5116498;28;19919;-58
2022/11/15 11:29:53;;;;;;;;;;;;;;;;;;5116605;28;19907;-57
2022/11/15 11:32:19;;;;;;;;;;;;;;;;;;5115028;28;19927;-57
2022/11/15 11:34:48;;;;;;;;;;;;;;;;;;5115572;28;20457;-57
2022/11/15 11:37:13;;;;;;;;;;;;;;;;;;5116282;28;20309;-57
2022/11/15 11:39:39;;;;;;;;;;;;;;;;;;5116089;28;19959;-57
2022/11/15 11:42:05;;;;;;;;;;;;;;;;;;5116048;28;19912;-57
2022/11/15 11:44:31;;;;;;;;;;;;;;;;;;5116057;28;19908;-57
2022/11/15 11:46:57;;;;;;;;;;;;;;;;;;5116198;28;19912;-58
2022/11/15 11:49:23;;;;;;;;;;;;;;;;;;5115926;28;19969;-58
2022/11/15 11:51:49;;;;;;;;;;;;;;;;;;5115966;28;19923;-57
2022/11/15 11:54:15;;;;;;;;;;;;;;;;;;5115793;28;19938;-57
2022/11/15 11:56:41;;;;;;;;;;;;;;;;;;5116040;28;19915;-57
2022/11/15 11:59:06;;;;;;;;;;;;;;;;;;5115725;28;19960;-57
2022/11/15 12:01:32;;;;;;;;;;;;;;;;;;5115735;28;20366;-57
2022/11/15 12:03:58;;;;;;;;;;;;;;;;;;5115811;28;19917;-57
2022/11/15 12:06:24;;;;;;;;;;;;;;;;;;5115775;28;20064;-57
2022/11/15 12:08:50;;;;;;;;;;;;;;;;;;5115730;28;19908;-57
2022/11/15 12:11:16;;;;;;;;;;;;;;;;;;5115484;28;19912;-57
2022/11/15 12:13:41;;;;;;;;;;;;;;;;;;5115421;28;20277;-57
2022/11/15 12:16:07;;;;;;;;;;;;;;;;;;5115855;28;19911;-57
2022/11/15 12:18:33;;;;;;;;;;;;;;;;;;5115349;28;19907;-56
2022/11/15 12:20:59;;;;;;;;;;;;;;;;;;5115535;28;19923;-57
2022/11/15 12:23:25;;;;;;;;;;;;;;;;;;5115264;28;19914;-56
2022/11/15 12:25:51;;;;;;;;;;;;;;;;;;5115469;28;19916;-56
2022/11/15 12:28:16;;;;;;;;;;;;;;;;;;5115199;28;19953;-56
2022/11/15 12:30:43;;;;;;;;;;;;;;;;;;5115104;28;19998;-56
2022/11/15 12:33:09;;;;;;;;;;;;;;;;;;5115082;28;19938;-57
2022/11/15 12:35:35;;;;;;;;;;;;;;;;;;5115256;28;19998;-57
2022/11/15 12:38:01;;;;;;;;;;;;;;;;;;5115224;28;20328;-57
2022/11/15 12:40:27;;;;;;;;;;;;;;;;;;5115074;28;19927;-57
2022/11/15 12:42:52;;;;;;;;;;;;;;;;;;5114447;28;19908;-57
2022/11/15 12:45:18;;;;;;;;;;;;;;;;;;5115009;28;19915;-57
2022/11/15 12:47:44;;;;;;;;;;;;;;;;;;5114683;28;20048;-57
2022/11/15 12:50:10;;;;;;;;;;;;;;;;;;5114880;28;19966;-56
2022/11/15 12:52:36;;;;;;;;;;;;;;;;;;5114657;28;19950;-57
2022/11/15 12:55:02;;;;;;;;;;;;;;;;;;5114641;28;19919;-57
2022/11/15 12:57:27;;;;;;;;;;;;;;;;;;5114588;28;19908;-56
2022/11/15 12:59:58;;;;;;;;;;;;;;;;;;5114425;28;20274;-56
2022/11/15 13:02:24;;;;;;;;;;;;;;;;;;5114241;28;19912;-56
2022/11/15 13:04:50;;;;;;;;;;;;;;;;;;5114704;28;20272;-56
2022/11/15 13:07:15;;;;;;;;;;;;;;;;;;5114578;28;19964;-57
2022/11/15 13:09:41;;;;;;;;;;;;;;;;;;5114525;28;19907;-57
2022/11/15 13:12:07;;;;;;;;;;;;;;;;;;5114415;28;20361;-57
2022/11/15 13:14:33;;;;;;;;;;;;;;;;;;5114236;28;19915;-57
2022/11/15 13:16:59;;;;;;;;;;;;;;;;;;5114201;28;20005;-57
2022/11/15 13:19:25;;;;;;;;;;;;;;;;;;5114078;28;20429;-56
2022/11/15 13:24:35;;;;;;;;;;;;;;;;;;5114332;28;20335;-57
2022/11/15 13:27:01;;;;;;;;;;;;;;;;;;5114042;28;20353;-57
2022/11/15 13:29:27;;;;;;;;;;;;;;;;;;5113920;28;19911;-57
2022/11/15 13:31:55;;;;;;;;;;;;;;;;;;5113450;28;20389;-57
2022/11/15 13:34:21;;;;;;;;;;;;;;;;;;5114273;28;20036;-57
2022/11/15 13:36:47;;;;;;;;;;;;;;;;;;5113769;28;20258;-56
2022/11/15 13:39:13;;;;;;;;;;;;;;;;;;5113790;28;19920;-58
2022/11/15 13:41:39;;;;;;;;;;;;;;;;;;5113427;28;20259;-57
2022/11/15 13:44:05;;;;;;;;;;;;;;;;;;5112451;28;19912;-57
2022/11/15 13:46:31;;;;;;;;;;;;;;;;;;5113189;28;19922;-57
2022/11/15 13:48:57;;;;;;;;;;;;;;;;;;5113511;28;19965;-57
2022/11/15 13:51:24;;;;;;;;;;;;;;;;;;5112709;28;19959;-57
2022/11/15 13:53:50;;;;;;;;;;;;;;;;;;5113033;28;19912;-57
2022/11/15 13:56:16;;;;;;;;;;;;;;;;;;5112845;28;19977;-56
2022/11/15 13:58:44;;;;;;;;;;;;;;;;;;5113169;28;20258;-57
2022/11/15 14:01:10;;;;;;;;;;;;;;;;;;5112273;28;19919;-58
2022/11/15 14:03:38;;;;;;;;;;;;;;;;;;5113135;28;20449;-57
2022/11/15 14:06:10;;;;;;;;;;;;;;;;;;5110970;28;19994;-57
2022/11/15 14:08:36;;;;;;;;;;;;;;;;;;5113043;28;19918;-57
2022/11/15 14:11:02;;;;;;;;;;;;;;;;;;5113111;28;19907;-55
2022/11/15 14:13:28;;;;;;;;;;;;;;;;;;5113002;28;19911;-58
2022/11/15 14:15:56;;;;;;;;;;;;;;;;;;5112401;28;19908;-56
2022/11/15 14:18:22;;;;;;;;;;;;;;;;;;5112486;28;19919;-58
2022/11/15 14:20:47;;;;;;;;;;;;;;;;;;5115432;28;19919;-58
2022/11/15 14:23:13;;;;;;;;;;;;;;;;;;5117499;28;19916;-58
2022/11/15 14:25:39;;;;;;;;;;;;;;;;;;5112387;28;19915;-58
2022/11/15 14:28:05;;;;;;;;;;;;;;;;;;5128353;28;19985;-58
2022/11/15 14:30:31;;;;;;;;;;;;;;;;;;5118794;28;19923;-58
2022/11/15 14:32:57;;;;;;;;;;;;;;;;;;5121188;28;19911;-58
2022/11/15 14:35:22;;;;;;;;;;;;;;;;;;5126706;28;19907;-58
2022/11/15 14:37:49;;;;;;;;;;;;;;;;;;5115590;28;19915;-58
2022/11/15 14:40:14;;;;;;;;;;;;;;;;;;5115228;28;19923;-58
2022/11/15 14:42:40;;;;;;;;;;;;;;;;;;5119017;28;19998;-58
2022/11/15 14:45:06;;;;;;;;;;;;;;;;;;5117464;28;20015;-58
2022/11/15 14:47:32;;;;;;;;;;;;;;;;;;5126732;28;19911;-58
2022/11/15 14:49:58;;;;;;;;;;;;;;;;;;5113978;28;19969;-58
2022/11/15 14:52:24;;;;;;;;;;;;;;;;;;5123838;28;19966;-58
2022/11/15 14:54:50;;;;;;;;;;;;;;;;;;5121881;28;19911;-58
2022/11/15 14:57:16;;;;;;;;;;;;;;;;;;5119084;28;19934;-58
2022/11/15 14:59:41;;;;;;;;;;;;;;;;;;5097304;28;19915;-59
2022/11/15 15:02:07;;;;;;;;;;;;;;;;;;5112929;28;20289;-56
2022/11/15 15:04:33;;;;;;;;;;;;;;;;;;5112581;28;19914;-57
2022/11/15 15:07:00;;;;;;;;;;;;;;;;;;5113447;28;19912;-56
2022/11/15 15:09:26;;;;;;;;;;;;;;;;;;5116585;27;19915;-57
2022/11/15 15:11:54;;;;;;;;;;;;;;;;;;5107567;27;19912;-56
2022/11/15 15:14:20;;;;;;;;;;;;;;;;;;5105264;27;19919;-56
2022/11/15 15:16:46;;;;;;;;;;;;;;;;;;5109895;27;19912;-57
2022/11/15 15:19:12;;;;;;;;;;;;;;;;;;5109870;27;19918;-57
2022/11/15 15:21:37;;;;;;;;;;;;;;;;;;5104798;27;19920;-55
2022/11/15 15:24:03;;;;;;;;;;;;;;;;;;5109511;27;19912;-56
2022/11/15 15:26:29;;;;;;;;;;;;;;;;;;5108665;27;20897;-57
2022/11/15 15:28:55;;;;;;;;;;;;;;;;;;5109716;27;19954;-57
2022/11/15 15:31:21;;;;;;;;;;;;;;;;;;5111569;27;19920;-57
2022/11/15 15:33:47;;;;;;;;;;;;;;;;;;5110251;27;19912;-57
2022/11/15 15:36:13;;;;;;;;;;;;;;;;;;5109764;27;19998;-57
2022/11/15 15:38:40;;;;;;;;;;;;;;;;;;5108723;27;19912;-57
2022/11/15 15:41:06;;;;;;;;;;;;;;;;;;5106002;27;19919;-57
2022/11/15 15:43:32;;;;;;;;;;;;;;;;;;5107529;27;19921;-57
2022/11/15 15:45:58;;;;;;;;;;;;;;;;;;5104588;27;20318;-57
2022/11/15 15:48:24;;;;;;;;;;;;;;;;;;5111495;27;20294;-57
2022/11/15 15:50:50;;;;;;;;;;;;;;;;;;5093149;28;19920;-57
2022/11/15 15:53:17;;;;;;;;;;;;;;;;;;5110193;27;20354;-57
2022/11/15 15:55:42;;;;;;;;;;;;;;;;;;5110944;27;19919;-57
2022/11/15 15:58:08;;;;;;;;;;;;;;;;;;5101504;28;19915;-58
2022/11/15 16:00:34;;;;;;;;;;;;;;;;;;5106908;27;20071;-58
2022/11/15 16:03:00;;;;;;;;;;;;;;;;;;5114226;27;19911;-58
2022/11/15 16:05:26;;;;;;;;;;;;;;;;;;5108036;27;20362;-58
2022/11/15 16:07:52;;;;;;;;;;;;;;;;;;5107612;28;20262;-57
2022/11/15 16:10:17;;;;;;;;;;;;;;;;;;5109210;27;20064;-57
2022/11/15 16:12:43;;;;;;;;;;;;;;;;;;5110632;28;20289;-57
2022/11/15 16:15:09;;;;;;;;;;;;;;;;;;5109588;27;19916;-57
2022/11/15 16:17:35;;;;;;;;;;;;;;;;;;5107856;28;20025;-58
2022/11/15 16:20:01;;;;;;;;;;;;;;;;;;5103920;27;19923;-59
2022/11/15 16:22:28;;;;;;;;;;;;;;;;;;5102207;27;20002;-59
2022/11/15 16:24:54;;;;;;;;;;;;;;;;;;5099338;27;19917;-58
2022/11/15 16:27:20;;;;;;;;;;;;;;;;;;5103598;28;19920;-59
2022/11/15 16:29:46;;;;;;;;;;;;;;;;;;5102371;27;19922;-58
2022/11/15 16:32:12;;;;;;;;;;;;;;;;;;5118818;27;19920;-59
2022/11/15 16:34:38;;;;;;;;;;;;;;;;;;5126455;27;20327;-58
2022/11/15 16:37:04;;;;;;;;;;;;;;;;;;5126245;27;19972;-58
2022/11/15 16:39:30;;;;;;;;;;;;;;;;;;5119031;27;19919;-58
2022/11/15 16:41:55;;;;;;;;;;;;;;;;;;5129775;27;20405;-58
2022/11/15 16:44:22;;;;;;;;;;;;;;;;;;5119901;27;20349;-59
2022/11/15 16:46:50;;;;;;;;;;;;;;;;;;5124558;27;20388;-58
2022/11/15 16:49:16;;;;;;;;;;;;;;;;;;5122680;27;19912;-58
2022/11/15 16:51:44;;;;;;;;;;;;;;;;;;5131150;27;20319;-58
2022/11/15 16:54:10;;;;;;;;;;;;;;;;;;5118609;27;19967;-58
2022/11/15 16:56:36;;;;;;;;;;;;;;;;;;5126420;27;19907;-58
2022/11/15 16:59:01;;;;;;;;;;;;;;;;;;5115744;27;19923;-58
2022/11/15 17:01:27;;;;;;;;;;;;;;;;;;5111308;27;20397;-58
2022/11/15 17:03:53;;;;;;;;;;;;;;;;;;5117259;27;19912;-58
2022/11/15 17:06:20;;;;;;;;;;;;;;;;;;5128805;27;19914;-58
2022/11/15 17:08:45;;;;;;;;;;;;;;;;;;5121223;27;20016;-59
2022/11/15 17:11:11;;;;;;;;;;;;;;;;;;5126722;27;20361;-58
2022/11/15 17:13:37;;;;;;;;;;;;;;;;;;5117671;27;19938;-58
2022/11/15 17:16:03;;;;;;;;;;;;;;;;;;5131821;27;19969;-58
2022/11/15 17:18:29;;;;;;;;;;;;;;;;;;5115980;27;19925;-59
2022/11/15 17:20:54;;;;;;;;;;;;;;;;;;5115310;27;19916;-59
2022/11/15 17:23:20;;;;;;;;;;;;;;;;;;5115723;27;19958;-59
2022/11/15 17:25:46;;;;;;;;;;;;;;;;;;5116864;27;20429;-59
2022/11/15 17:28:12;;;;;;;;;;;;;;;;;;5117211;27;19912;-58
2022/11/15 17:30:38;;;;;;;;;;;;;;;;;;5121008;27;19919;-59
2022/11/15 17:33:04;;;;;;;;;;;;;;;;;;5121883;27;19951;-58
2022/11/15 17:35:29;;;;;;;;;;;;;;;;;;5129020;27;19922;-58
2022/11/15 17:37:55;;;;;;;;;;;;;;;;;;5116785;27;19919;-58
2022/11/15 17:40:21;;;;;;;;;;;;;;;;;;5127686;27;19973;-58
2022/11/15 17:42:47;;;;;;;;;;;;;;;;;;5122820;27;19911;-58
2022/11/15 17:45:13;;;;;;;;;;;;;;;;;;5119440;27;19930;-59
2022/11/15 17:47:39;;;;;;;;;;;;;;;;;;5112890;28;19951;-59
2022/11/15 17:50:05;;;;;;;;;;;;;;;;;;5119875;27;19908;-58
2022/11/15 17:52:30;;;;;;;;;;;;;;;;;;5125573;27;19915;-59